sensor_id;sensor_type;location;lat;lon;timestamp;temperature;humidity
9723;DHT22;4900;49.306;8.500;2023-11-19T00:02:07;10.10;86.00
9723;DHT22;4900;49.306;8.500;2023-11-19T00:04:36;10.14;85.97
9723;DHT22;4900;49.306;8.500;2023-11-19T00:07:02;10.14;85.91
9723;DHT22;4900;49.306;8.500;2023-11-19T00:09:29;10.17;85.80
9723;DHT22;4900;49.306;8.500;2023-11-19T00:11:55;10.08;86.27
9723;DHT22;4900;49.306;8.500;2023-11-19T00:14:20;10.14;86.23
9723;DHT22;4900;49.306;8.500;2023-11-19T00:16:46;10.17;86.24
9723;DHT22;4900;49.306;8.500;2023-11-19T00:19:11;10.18;86.14
9723;DHT22;4900;49.306;8.500;2023-11-19T00:21:37;10.18;86.36
9723;DHT22;4900;49.306;8.500;2023-11-19T00:24:02;10.14;86.49
9723;DHT22;4900;49.306;8.500;2023-11-19T00:26:29;10.14;86.58
9723;DHT22;4900;49.306;8.500;2023-11-19T00:28:55;10.18;86.51
9723;DHT22;4900;49.306;8.500;2023-11-19T00:31:21;10.18;86.48
9723;DHT22;4900;49.306;8.500;2023-11-19T00:33:47;10.18;86.86
9723;DHT22;4900;49.306;8.500;2023-11-19T00:36:12;10.16;87.03
9723;DHT22;4900;49.306;8.500;2023-11-19T00:38:38;10.24;86.75
9723;DHT22;4900;49.306;8.500;2023-11-19T00:41:04;10.29;86.64
9723;DHT22;4900;49.306;8.500;2023-11-19T00:43:29;10.25;86.68
9723;DHT22;4900;49.306;8.500;2023-11-19T00:45:55;10.35;86.38
9723;DHT22;4900;49.306;8.500;2023-11-19T00:48:20;10.29;86.61
9723;DHT22;4900;49.306;8.500;2023-11-19T00:50:45;10.24;86.93
9723;DHT22;4900;49.306;8.500;2023-11-19T00:53:11;10.25;86.97
9723;DHT22;4900;49.306;8.500;2023-11-19T00:55:37;10.28;87.07
9723;DHT22;4900;49.306;8.500;2023-11-19T00:58:02;10.28;87.12
9723;DHT22;4900;49.306;8.500;2023-11-19T01:00:28;10.31;86.92
9723;DHT22;4900;49.306;8.500;2023-11-19T01:02:54;10.34;86.85
9723;DHT22;4900;49.306;8.500;2023-11-19T01:05:20;10.29;87.20
9723;DHT22;4900;49.306;8.500;2023-11-19T01:07:47;10.36;87.01
9723;DHT22;4900;49.306;8.500;2023-11-19T01:10:12;10.32;87.35
9723;DHT22;4900;49.306;8.500;2023-11-19T01:12:38;10.39;87.21
9723;DHT22;4900;49.306;8.500;2023-11-19T01:15:05;10.36;87.28
9723;DHT22;4900;49.306;8.500;2023-11-19T01:17:30;10.39;87.19
9723;DHT22;4900;49.306;8.500;2023-11-19T01:19:57;10.38;87.38
9723;DHT22;4900;49.306;8.500;2023-11-19T01:22:22;10.45;87.25
9723;DHT22;4900;49.306;8.500;2023-11-19T01:24:48;10.49;87.19
9723;DHT22;4900;49.306;8.500;2023-11-19T01:27:14;10.45;87.21
9723;DHT22;4900;49.306;8.500;2023-11-19T01:29:39;10.45;87.29
9723;DHT22;4900;49.306;8.500;2023-11-19T01:32:05;10.50;87.10
9723;DHT22;4900;49.306;8.500;2023-11-19T01:34:30;10.52;87.16
9723;DHT22;4900;49.306;8.500;2023-11-19T01:36:56;10.53;87.08
9723;DHT22;4900;49.306;8.500;2023-11-19T01:39:21;10.39;87.80
9723;DHT22;4900;49.306;8.500;2023-11-19T01:41:47;10.46;87.57
9723;DHT22;4900;49.306;8.500;2023-11-19T01:44:12;10.50;87.45
9723;DHT22;4900;49.306;8.500;2023-11-19T01:46:40;10.50;87.38
9723;DHT22;4900;49.306;8.500;2023-11-19T01:49:07;10.55;87.37
9723;DHT22;4900;49.306;8.500;2023-11-19T01:51:32;10.56;87.52
9723;DHT22;4900;49.306;8.500;2023-11-19T01:53:58;10.59;87.33
9723;DHT22;4900;49.306;8.500;2023-11-19T01:56:24;10.56;87.46
9723;DHT22;4900;49.306;8.500;2023-11-19T01:58:53;10.58;87.50
9723;DHT22;4900;49.306;8.500;2023-11-19T02:01:20;10.62;87.44
9723;DHT22;4900;49.306;8.500;2023-11-19T02:03:45;10.61;87.24
9723;DHT22;4900;49.306;8.500;2023-11-19T02:06:12;10.65;87.26
9723;DHT22;4900;49.306;8.500;2023-11-19T02:08:39;10.68;87.26
9723;DHT22;4900;49.306;8.500;2023-11-19T02:11:05;10.66;87.23
9723;DHT22;4900;49.306;8.500;2023-11-19T02:13:32;10.73;87.07
9723;DHT22;4900;49.306;8.500;2023-11-19T02:15:57;10.72;87.05
9723;DHT22;4900;49.306;8.500;2023-11-19T02:18:24;10.70;87.03
9723;DHT22;4900;49.306;8.500;2023-11-19T02:20:53;10.66;87.42
9723;DHT22;4900;49.306;8.500;2023-11-19T02:23:20;10.65;87.36
9723;DHT22;4900;49.306;8.500;2023-11-19T02:28:24;10.75;87.04
9723;DHT22;4900;49.306;8.500;2023-11-19T02:30:50;10.79;87.02
9723;DHT22;4900;49.306;8.500;2023-11-19T02:33:15;10.76;87.28
9723;DHT22;4900;49.306;8.500;2023-11-19T02:35:41;10.72;87.54
9723;DHT22;4900;49.306;8.500;2023-11-19T02:38:06;10.72;87.69
9723;DHT22;4900;49.306;8.500;2023-11-19T02:40:32;10.72;87.72
9723;DHT22;4900;49.306;8.500;2023-11-19T02:42:58;10.68;88.01
9723;DHT22;4900;49.306;8.500;2023-11-19T02:45:24;10.70;88.07
9723;DHT22;4900;49.306;8.500;2023-11-19T02:47:50;10.77;87.89
9723;DHT22;4900;49.306;8.500;2023-11-19T02:50:17;10.80;87.80
9723;DHT22;4900;49.306;8.500;2023-11-19T02:52:46;10.81;87.74
9723;DHT22;4900;49.306;8.500;2023-11-19T02:55:11;10.84;87.85
9723;DHT22;4900;49.306;8.500;2023-11-19T02:57:40;10.90;87.71
9723;DHT22;4900;49.306;8.500;2023-11-19T03:00:17;10.87;87.87
9723;DHT22;4900;49.306;8.500;2023-11-19T03:02:44;10.89;88.03
9723;DHT22;4900;49.306;8.500;2023-11-19T03:05:14;10.87;88.28
9723;DHT22;4900;49.306;8.500;2023-11-19T03:07:42;10.96;88.14
9723;DHT22;4900;49.306;8.500;2023-11-19T03:10:12;10.93;88.22
9723;DHT22;4900;49.306;8.500;2023-11-19T03:12:43;10.98;88.16
9723;DHT22;4900;49.306;8.500;2023-11-19T03:15:09;10.97;88.22
9723;DHT22;4900;49.306;8.500;2023-11-19T03:17:39;11.01;88.20
9723;DHT22;4900;49.306;8.500;2023-11-19T03:20:06;11.00;88.35
9723;DHT22;4900;49.306;8.500;2023-11-19T03:22:32;11.00;88.42
9723;DHT22;4900;49.306;8.500;2023-11-19T03:24:59;11.04;88.44
9723;DHT22;4900;49.306;8.500;2023-11-19T03:27:25;11.01;88.73
9723;DHT22;4900;49.306;8.500;2023-11-19T03:29:50;11.08;88.49
9723;DHT22;4900;49.306;8.500;2023-11-19T03:32:15;11.10;88.44
9723;DHT22;4900;49.306;8.500;2023-11-19T03:34:41;11.14;88.26
9723;DHT22;4900;49.306;8.500;2023-11-19T03:37:06;11.08;88.65
9723;DHT22;4900;49.306;8.500;2023-11-19T03:39:32;11.08;88.60
9723;DHT22;4900;49.306;8.500;2023-11-19T03:41:58;11.10;88.76
9723;DHT22;4900;49.306;8.500;2023-11-19T03:44:26;11.19;88.55
9723;DHT22;4900;49.306;8.500;2023-11-19T03:46:52;11.18;88.55
9723;DHT22;4900;49.306;8.500;2023-11-19T03:49:17;11.18;88.74
9723;DHT22;4900;49.306;8.500;2023-11-19T03:51:43;11.19;88.86
9723;DHT22;4900;49.306;8.500;2023-11-19T03:54:08;11.21;88.85
9723;DHT22;4900;49.306;8.500;2023-11-19T03:56:34;11.22;88.79
9723;DHT22;4900;49.306;8.500;2023-11-19T03:59:00;11.26;88.86
9723;DHT22;4900;49.306;8.500;2023-11-19T04:01:26;11.28;88.93
9723;DHT22;4900;49.306;8.500;2023-11-19T04:03:51;11.26;89.01
9723;DHT22;4900;49.306;8.500;2023-11-19T04:06:17;11.29;89.04
9723;DHT22;4900;49.306;8.500;2023-11-19T04:08:42;11.34;88.97
9723;DHT22;4900;49.306;8.500;2023-11-19T04:11:07;11.32;89.11
9723;DHT22;4900;49.306;8.500;2023-11-19T04:13:34;11.35;89.15
9723;DHT22;4900;49.306;8.500;2023-11-19T04:15:59;11.36;89.13
9723;DHT22;4900;49.306;8.500;2023-11-19T04:18:25;11.35;89.34
9723;DHT22;4900;49.306;8.500;2023-11-19T04:20:50;11.36;89.36
9723;DHT22;4900;49.306;8.500;2023-11-19T04:23:16;11.43;89.46
9723;DHT22;4900;49.306;8.500;2023-11-19T04:25:42;11.46;89.33
9723;DHT22;4900;49.306;8.500;2023-11-19T04:28:07;11.51;89.25
9723;DHT22;4900;49.306;8.500;2023-11-19T04:30:33;11.51;89.08
9723;DHT22;4900;49.306;8.500;2023-11-19T04:32:59;11.52;89.27
9723;DHT22;4900;49.306;8.500;2023-11-19T04:35:24;11.51;89.28
9723;DHT22;4900;49.306;8.500;2023-11-19T04:37:50;11.49;89.36
9723;DHT22;4900;49.306;8.500;2023-11-19T04:40:16;11.49;89.61
9723;DHT22;4900;49.306;8.500;2023-11-19T04:42:43;11.55;89.40
9723;DHT22;4900;49.306;8.500;2023-11-19T04:45:09;11.55;89.51
9723;DHT22;4900;49.306;8.500;2023-11-19T04:47:36;11.59;89.41
9723;DHT22;4900;49.306;8.500;2023-11-19T04:50:02;11.56;89.54
9723;DHT22;4900;49.306;8.500;2023-11-19T04:52:28;11.60;89.45
9723;DHT22;4900;49.306;8.500;2023-11-19T04:54:54;11.65;89.32
9723;DHT22;4900;49.306;8.500;2023-11-19T04:57:19;11.58;89.44
9723;DHT22;4900;49.306;8.500;2023-11-19T04:59:45;11.58;89.70
9723;DHT22;4900;49.306;8.500;2023-11-19T05:02:10;11.59;89.52
9723;DHT22;4900;49.306;8.500;2023-11-19T05:04:36;11.67;89.62
9723;DHT22;4900;49.306;8.500;2023-11-19T05:07:04;11.65;89.61
9723;DHT22;4900;49.306;8.500;2023-11-19T05:09:31;11.71;89.43
9723;DHT22;4900;49.306;8.500;2023-11-19T05:11:56;11.65;89.83
9723;DHT22;4900;49.306;8.500;2023-11-19T05:14:22;11.71;89.71
9723;DHT22;4900;49.306;8.500;2023-11-19T05:16:47;11.74;89.54
9723;DHT22;4900;49.306;8.500;2023-11-19T05:19:13;11.73;89.74
9723;DHT22;4900;49.306;8.500;2023-11-19T05:21:42;11.80;89.53
9723;DHT22;4900;49.306;8.500;2023-11-19T05:24:08;11.90;89.25
9723;DHT22;4900;49.306;8.500;2023-11-19T05:26:33;11.90;89.31
9723;DHT22;4900;49.306;8.500;2023-11-19T05:28:58;11.86;89.39
9723;DHT22;4900;49.306;8.500;2023-11-19T05:31:24;11.87;89.69
9723;DHT22;4900;49.306;8.500;2023-11-19T05:33:49;11.90;89.40
9723;DHT22;4900;49.306;8.500;2023-11-19T05:36:15;11.91;89.33
9723;DHT22;4900;49.306;8.500;2023-11-19T05:38:40;11.95;89.41
9723;DHT22;4900;49.306;8.500;2023-11-19T05:41:06;11.99;89.34
9723;DHT22;4900;49.306;8.500;2023-11-19T05:43:32;11.95;89.35
9723;DHT22;4900;49.306;8.500;2023-11-19T05:45:57;11.95;89.41
9723;DHT22;4900;49.306;8.500;2023-11-19T05:48:25;11.97;89.48
9723;DHT22;4900;49.306;8.500;2023-11-19T05:50:51;12.02;89.36
9723;DHT22;4900;49.306;8.500;2023-11-19T05:53:16;12.05;89.37
9723;DHT22;4900;49.306;8.500;2023-11-19T05:55:41;12.07;89.27
9723;DHT22;4900;49.306;8.500;2023-11-19T05:58:25;12.08;89.27
9723;DHT22;4900;49.306;8.500;2023-11-19T06:00:52;12.07;89.24
9723;DHT22;4900;49.306;8.500;2023-11-19T06:03:17;12.09;89.15
9723;DHT22;4900;49.306;8.500;2023-11-19T06:05:46;12.09;89.30
9723;DHT22;4900;49.306;8.500;2023-11-19T06:08:12;12.07;89.43
9723;DHT22;4900;49.306;8.500;2023-11-19T06:10:39;12.08;89.41
9723;DHT22;4900;49.306;8.500;2023-11-19T06:13:04;12.14;89.35
9723;DHT22;4900;49.306;8.500;2023-11-19T06:15:30;12.15;89.29
9723;DHT22;4900;49.306;8.500;2023-11-19T06:17:56;12.22;89.22
9723;DHT22;4900;49.306;8.500;2023-11-19T06:20:24;12.21;89.23
9723;DHT22;4900;49.306;8.500;2023-11-19T06:22:50;12.28;89.07
9723;DHT22;4900;49.306;8.500;2023-11-19T06:25:15;12.32;89.08
9723;DHT22;4900;49.306;8.500;2023-11-19T06:27:42;12.29;89.09
9723;DHT22;4900;49.306;8.500;2023-11-19T06:30:08;12.28;89.00
9723;DHT22;4900;49.306;8.500;2023-11-19T06:32:34;12.33;89.10
9723;DHT22;4900;49.306;8.500;2023-11-19T06:34:59;12.35;88.94
9723;DHT22;4900;49.306;8.500;2023-11-19T06:37:24;12.39;88.98
9723;DHT22;4900;49.306;8.500;2023-11-19T06:39:50;12.41;88.93
9723;DHT22;4900;49.306;8.500;2023-11-19T06:42:15;12.39;88.85
9723;DHT22;4900;49.306;8.500;2023-11-19T06:44:41;12.39;88.90
9723;DHT22;4900;49.306;8.500;2023-11-19T06:47:06;12.41;88.92
9723;DHT22;4900;49.306;8.500;2023-11-19T06:49:32;12.43;88.98
9723;DHT22;4900;49.306;8.500;2023-11-19T06:51:58;12.42;88.94
9723;DHT22;4900;49.306;8.500;2023-11-19T06:54:23;12.43;88.93
9723;DHT22;4900;49.306;8.500;2023-11-19T06:56:49;12.46;89.12
9723;DHT22;4900;49.306;8.500;2023-11-19T06:59:14;12.45;88.94
9723;DHT22;4900;49.306;8.500;2023-11-19T07:01:40;12.45;89.07
9723;DHT22;4900;49.306;8.500;2023-11-19T07:04:10;12.48;88.98
9723;DHT22;4900;49.306;8.500;2023-11-19T07:06:36;12.53;88.75
9723;DHT22;4900;49.306;8.500;2023-11-19T07:09:03;12.48;88.92
9723;DHT22;4900;49.306;8.500;2023-11-19T07:11:38;12.52;88.77
9723;DHT22;4900;49.306;8.500;2023-11-19T07:14:04;12.55;88.92
9723;DHT22;4900;49.306;8.500;2023-11-19T07:16:30;12.63;88.74
9723;DHT22;4900;49.306;8.500;2023-11-19T07:18:55;12.62;88.67
9723;DHT22;4900;49.306;8.500;2023-11-19T07:21:21;12.62;88.70
9723;DHT22;4900;49.306;8.500;2023-11-19T07:23:47;12.62;88.70
9723;DHT22;4900;49.306;8.500;2023-11-19T07:26:12;12.67;88.61
9723;DHT22;4900;49.306;8.500;2023-11-19T07:28:38;12.67;88.53
9723;DHT22;4900;49.306;8.500;2023-11-19T07:31:05;12.69;88.48
9723;DHT22;4900;49.306;8.500;2023-11-19T07:33:32;12.69;88.56
9723;DHT22;4900;49.306;8.500;2023-11-19T07:35:58;12.69;88.74
9723;DHT22;4900;49.306;8.500;2023-11-19T07:38:24;12.73;88.70
9723;DHT22;4900;49.306;8.500;2023-11-19T07:40:49;12.81;88.65
9723;DHT22;4900;49.306;8.500;2023-11-19T07:43:14;12.81;88.57
9723;DHT22;4900;49.306;8.500;2023-11-19T07:45:40;12.77;88.98
9723;DHT22;4900;49.306;8.500;2023-11-19T07:48:10;12.79;88.96
9723;DHT22;4900;49.306;8.500;2023-11-19T07:50:36;12.84;88.96
9723;DHT22;4900;49.306;8.500;2023-11-19T07:53:01;12.87;88.90
9723;DHT22;4900;49.306;8.500;2023-11-19T07:55:29;12.93;88.77
9723;DHT22;4900;49.306;8.500;2023-11-19T07:57:54;12.94;88.75
9723;DHT22;4900;49.306;8.500;2023-11-19T08:00:20;12.98;88.71
9723;DHT22;4900;49.306;8.500;2023-11-19T08:02:45;12.96;88.71
9723;DHT22;4900;49.306;8.500;2023-11-19T08:05:11;13.00;88.70
9723;DHT22;4900;49.306;8.500;2023-11-19T08:07:37;13.05;88.72
9723;DHT22;4900;49.306;8.500;2023-11-19T08:10:03;13.07;88.78
9723;DHT22;4900;49.306;8.500;2023-11-19T08:12:30;13.12;88.47
9723;DHT22;4900;49.306;8.500;2023-11-19T08:14:56;13.15;88.40
9723;DHT22;4900;49.306;8.500;2023-11-19T08:17:23;13.18;88.32
9723;DHT22;4900;49.306;8.500;2023-11-19T08:19:49;13.24;88.36
9723;DHT22;4900;49.306;8.500;2023-11-19T08:22:14;13.28;88.22
9723;DHT22;4900;49.306;8.500;2023-11-19T08:24:43;13.31;88.00
9723;DHT22;4900;49.306;8.500;2023-11-19T08:27:08;13.29;88.11
9723;DHT22;4900;49.306;8.500;2023-11-19T08:29:34;13.31;87.89
9723;DHT22;4900;49.306;8.500;2023-11-19T08:32:02;13.36;87.73
9723;DHT22;4900;49.306;8.500;2023-11-19T08:34:29;13.46;87.44
9723;DHT22;4900;49.306;8.500;2023-11-19T08:36:54;13.46;87.56
9723;DHT22;4900;49.306;8.500;2023-11-19T08:39:21;13.46;87.49
9723;DHT22;4900;49.306;8.500;2023-11-19T08:41:47;13.53;87.49
9723;DHT22;4900;49.306;8.500;2023-11-19T08:44:13;13.60;87.50
9723;DHT22;4900;49.306;8.500;2023-11-19T08:46:38;13.67;87.31
9723;DHT22;4900;49.306;8.500;2023-11-19T08:49:05;13.69;87.22
9723;DHT22;4900;49.306;8.500;2023-11-19T08:51:31;13.76;87.04
9723;DHT22;4900;49.306;8.500;2023-11-19T08:53:56;13.73;87.02
9723;DHT22;4900;49.306;8.500;2023-11-19T08:56:22;13.77;87.03
9723;DHT22;4900;49.306;8.500;2023-11-19T08:58:48;13.70;86.86
9723;DHT22;4900;49.306;8.500;2023-11-19T09:01:13;13.74;87.05
9723;DHT22;4900;49.306;8.500;2023-11-19T09:03:38;13.87;87.03
9723;DHT22;4900;49.306;8.500;2023-11-19T09:06:04;13.98;86.90
9723;DHT22;4900;49.306;8.500;2023-11-19T09:08:29;14.12;86.62
9723;DHT22;4900;49.306;8.500;2023-11-19T09:10:55;14.25;86.45
9723;DHT22;4900;49.306;8.500;2023-11-19T09:13:20;14.37;85.92
9723;DHT22;4900;49.306;8.500;2023-11-19T09:15:46;14.46;85.54
9723;DHT22;4900;49.306;8.500;2023-11-19T09:18:11;14.50;85.37
9723;DHT22;4900;49.306;8.500;2023-11-19T09:20:36;14.56;85.12
9723;DHT22;4900;49.306;8.500;2023-11-19T09:23:04;14.53;84.91
9723;DHT22;4900;49.306;8.500;2023-11-19T09:25:30;14.61;84.61
9723;DHT22;4900;49.306;8.500;2023-11-19T09:27:56;14.59;84.46
9723;DHT22;4900;49.306;8.500;2023-11-19T09:30:21;14.53;84.42
9723;DHT22;4900;49.306;8.500;2023-11-19T09:32:47;14.55;84.55
9723;DHT22;4900;49.306;8.500;2023-11-19T09:35:13;14.53;84.81
9723;DHT22;4900;49.306;8.500;2023-11-19T09:37:40;14.66;84.70
9723;DHT22;4900;49.306;8.500;2023-11-19T09:40:06;14.81;84.55
9723;DHT22;4900;49.306;8.500;2023-11-19T09:42:47;14.95;84.21
9723;DHT22;4900;49.306;8.500;2023-11-19T09:45:17;15.20;83.54
9723;DHT22;4900;49.306;8.500;2023-11-19T09:47:46;15.31;82.86
9723;DHT22;4900;49.306;8.500;2023-11-19T09:50:16;15.35;82.73
9723;DHT22;4900;49.306;8.500;2023-11-19T09:52:43;15.40;82.45
9723;DHT22;4900;49.306;8.500;2023-11-19T09:55:09;15.51;82.47
9723;DHT22;4900;49.306;8.500;2023-11-19T09:57:35;15.66;81.91
9723;DHT22;4900;49.306;8.500;2023-11-19T10:00:04;15.71;81.78
9723;DHT22;4900;49.306;8.500;2023-11-19T10:02:34;15.75;81.45
9723;DHT22;4900;49.306;8.500;2023-11-19T10:05:05;16.01;81.13
9723;DHT22;4900;49.306;8.500;2023-11-19T10:07:32;16.11;80.55
9723;DHT22;4900;49.306;8.500;2023-11-19T10:10:02;16.23;80.13
9723;DHT22;4900;49.306;8.500;2023-11-19T10:12:29;16.29;80.04
9723;DHT22;4900;49.306;8.500;2023-11-19T10:14:57;16.28;80.14
9723;DHT22;4900;49.306;8.500;2023-11-19T10:17:33;16.46;79.59
9723;DHT22;4900;49.306;8.500;2023-11-19T10:19:59;16.29;79.24
9723;DHT22;4900;49.306;8.500;2023-11-19T10:22:25;16.49;78.89
9723;DHT22;4900;49.306;8.500;2023-11-19T10:24:51;16.46;78.88
9723;DHT22;4900;49.306;8.500;2023-11-19T10:27:17;16.39;78.85
9723;DHT22;4900;49.306;8.500;2023-11-19T10:29:46;16.40;78.68
9723;DHT22;4900;49.306;8.500;2023-11-19T10:32:12;16.56;78.70
9723;DHT22;4900;49.306;8.500;2023-11-19T10:34:39;16.74;78.45
9723;DHT22;4900;49.306;8.500;2023-11-19T10:37:05;16.71;78.28
9723;DHT22;4900;49.306;8.500;2023-11-19T10:39:53;16.75;77.77
9723;DHT22;4900;49.306;8.500;2023-11-19T10:42:21;16.75;77.46
9723;DHT22;4900;49.306;8.500;2023-11-19T10:44:47;16.88;77.26
9723;DHT22;4900;49.306;8.500;2023-11-19T10:47:18;17.04;76.84
9723;DHT22;4900;49.306;8.500;2023-11-19T10:49:45;17.09;76.57
9723;DHT22;4900;49.306;8.500;2023-11-19T10:52:17;17.12;75.76
9723;DHT22;4900;49.306;8.500;2023-11-19T10:54:44;17.24;75.34
9723;DHT22;4900;49.306;8.500;2023-11-19T10:57:12;17.40;74.64
9723;DHT22;4900;49.306;8.500;2023-11-19T10:59:44;17.41;74.42
9723;DHT22;4900;49.306;8.500;2023-11-19T11:02:14;17.47;74.35
9723;DHT22;4900;49.306;8.500;2023-11-19T11:04:47;17.34;74.29
9723;DHT22;4900;49.306;8.500;2023-11-19T11:07:14;17.37;74.15
9723;DHT22;4900;49.306;8.500;2023-11-19T11:09:41;17.05;74.17
9723;DHT22;4900;49.306;8.500;2023-11-19T11:12:09;16.96;74.38
9723;DHT22;4900;49.306;8.500;2023-11-19T11:14:37;16.84;74.31
9723;DHT22;4900;49.306;8.500;2023-11-19T11:17:03;16.89;74.26
9723;DHT22;4900;49.306;8.500;2023-11-19T11:19:33;16.88;74.25
9723;DHT22;4900;49.306;8.500;2023-11-19T11:22:00;17.02;74.04
9723;DHT22;4900;49.306;8.500;2023-11-19T11:24:48;16.96;73.72
9723;DHT22;4900;49.306;8.500;2023-11-19T11:27:40;17.09;73.07
9723;DHT22;4900;49.306;8.500;2023-11-19T11:33:06;17.53;72.13
9723;DHT22;4900;49.306;8.500;2023-11-19T11:38:40;17.82;69.73
9723;DHT22;4900;49.306;8.500;2023-11-19T11:41:33;17.75;69.38
9723;DHT22;4900;49.306;8.500;2023-11-19T11:43:58;17.86;68.64
9723;DHT22;4900;49.306;8.500;2023-11-19T11:49:02;17.89;68.05
9723;DHT22;4900;49.306;8.500;2023-11-19T11:57:06;18.12;67.07
9723;DHT22;4900;49.306;8.500;2023-11-19T12:02:11;18.16;66.73
9723;DHT22;4900;49.306;8.500;2023-11-19T12:04:37;17.85;67.30
9723;DHT22;4900;49.306;8.500;2023-11-19T12:07:13;17.71;67.38
9723;DHT22;4900;49.306;8.500;2023-11-19T12:09:42;17.58;67.57
9723;DHT22;4900;49.306;8.500;2023-11-19T12:20:05;17.84;68.07
9723;DHT22;4900;49.306;8.500;2023-11-19T12:22:36;17.91;67.45
9723;DHT22;4900;49.306;8.500;2023-11-19T12:25:02;18.10;66.64
9723;DHT22;4900;49.306;8.500;2023-11-19T12:27:29;18.22;66.37
9723;DHT22;4900;49.306;8.500;2023-11-19T12:29:54;18.26;66.62
9723;DHT22;4900;49.306;8.500;2023-11-19T12:32:22;18.14;66.67
9723;DHT22;4900;49.306;8.500;2023-11-19T12:34:47;17.68;66.86
9723;DHT22;4900;49.306;8.500;2023-11-19T12:37:13;17.57;67.17
9723;DHT22;4900;49.306;8.500;2023-11-19T12:39:39;17.51;67.07
9723;DHT22;4900;49.306;8.500;2023-11-19T12:42:06;17.32;67.28
9723;DHT22;4900;49.306;8.500;2023-11-19T12:44:31;17.19;67.44
9723;DHT22;4900;49.306;8.500;2023-11-19T12:47:05;17.15;67.20
9723;DHT22;4900;49.306;8.500;2023-11-19T12:49:36;16.91;67.33
9723;DHT22;4900;49.306;8.500;2023-11-19T12:52:02;16.79;67.62
9723;DHT22;4900;49.306;8.500;2023-11-19T12:54:36;16.68;68.24
9723;DHT22;4900;49.306;8.500;2023-11-19T12:57:03;16.64;68.40
9723;DHT22;4900;49.306;8.500;2023-11-19T12:59:29;16.63;68.47
9723;DHT22;4900;49.306;8.500;2023-11-19T13:01:58;16.57;68.94
9723;DHT22;4900;49.306;8.500;2023-11-19T13:04:28;16.51;69.13
9723;DHT22;4900;49.306;8.500;2023-11-19T13:06:55;16.56;69.25
9723;DHT22;4900;49.306;8.500;2023-11-19T13:09:31;16.56;69.35
9723;DHT22;4900;49.306;8.500;2023-11-19T13:11:56;16.49;69.50
9723;DHT22;4900;49.306;8.500;2023-11-19T13:14:23;16.47;69.60
9723;DHT22;4900;49.306;8.500;2023-11-19T13:16:48;16.22;70.11
9723;DHT22;4900;49.306;8.500;2023-11-19T13:19:15;16.30;70.00
9723;DHT22;4900;49.306;8.500;2023-11-19T13:21:45;16.40;69.89
9723;DHT22;4900;49.306;8.500;2023-11-19T13:24:13;16.41;69.78
9723;DHT22;4900;49.306;8.500;2023-11-19T13:26:38;16.46;69.62
9723;DHT22;4900;49.306;8.500;2023-11-19T13:29:04;16.50;69.44
9723;DHT22;4900;49.306;8.500;2023-11-19T13:31:29;16.49;69.41
9723;DHT22;4900;49.306;8.500;2023-11-19T13:33:55;16.63;69.37
9723;DHT22;4900;49.306;8.500;2023-11-19T13:36:20;16.81;70.02
9723;DHT22;4900;49.306;8.500;2023-11-19T13:38:45;17.16;70.86
9723;DHT22;4900;49.306;8.500;2023-11-19T13:41:12;17.50;70.17
9723;DHT22;4900;49.306;8.500;2023-11-19T13:43:39;17.78;67.29
9723;DHT22;4900;49.306;8.500;2023-11-19T13:46:04;17.94;65.89
9723;DHT22;4900;49.306;8.500;2023-11-19T13:48:30;18.09;65.15
9723;DHT22;4900;49.306;8.500;2023-11-19T13:50:55;18.10;63.44
9723;DHT22;4900;49.306;8.500;2023-11-19T13:53:22;18.23;62.22
9723;DHT22;4900;49.306;8.500;2023-11-19T13:55:49;18.47;61.78
9723;DHT22;4900;49.306;8.500;2023-11-19T13:58:14;18.71;62.31
9723;DHT22;4900;49.306;8.500;2023-11-19T14:00:41;18.69;61.24
9723;DHT22;4900;49.306;8.500;2023-11-19T14:03:07;18.53;60.44
9723;DHT22;4900;49.306;8.500;2023-11-19T14:05:33;18.30;59.82
9723;DHT22;4900;49.306;8.500;2023-11-19T14:07:58;18.05;59.27
9723;DHT22;4900;49.306;8.500;2023-11-19T14:10:24;17.94;59.56
9723;DHT22;4900;49.306;8.500;2023-11-19T14:12:49;17.79;58.98
9723;DHT22;4900;49.306;8.500;2023-11-19T14:15:15;17.67;58.90
9723;DHT22;4900;49.306;8.500;2023-11-19T14:17:42;17.58;59.05
9723;DHT22;4900;49.306;8.500;2023-11-19T14:20:09;17.49;59.43
9723;DHT22;4900;49.306;8.500;2023-11-19T14:22:39;17.30;59.89
9723;DHT22;4900;49.306;8.500;2023-11-19T14:25:05;17.18;60.49
9723;DHT22;4900;49.306;8.500;2023-11-19T14:27:33;17.15;60.64
9723;DHT22;4900;49.306;8.500;2023-11-19T14:29:58;16.95;61.27
9723;DHT22;4900;49.306;8.500;2023-11-19T14:32:24;16.95;61.47
9723;DHT22;4900;49.306;8.500;2023-11-19T14:34:49;16.79;62.12
9723;DHT22;4900;49.306;8.500;2023-11-19T14:37:14;16.75;62.02
9723;DHT22;4900;49.306;8.500;2023-11-19T14:39:40;16.60;62.74
9723;DHT22;4900;49.306;8.500;2023-11-19T14:42:05;16.47;63.33
9723;DHT22;4900;49.306;8.500;2023-11-19T14:44:31;16.53;64.02
9723;DHT22;4900;49.306;8.500;2023-11-19T14:46:56;16.54;64.26
9723;DHT22;4900;49.306;8.500;2023-11-19T14:49:22;16.39;65.20
9723;DHT22;4900;49.306;8.500;2023-11-19T14:51:49;16.40;65.40
9723;DHT22;4900;49.306;8.500;2023-11-19T14:54:14;16.40;65.49
9723;DHT22;4900;49.306;8.500;2023-11-19T14:56:41;16.28;66.04
9723;DHT22;4900;49.306;8.500;2023-11-19T14:59:07;16.19;66.30
9723;DHT22;4900;49.306;8.500;2023-11-19T15:01:32;16.18;66.45
9723;DHT22;4900;49.306;8.500;2023-11-19T15:03:58;16.11;66.15
9723;DHT22;4900;49.306;8.500;2023-11-19T15:06:24;16.11;65.51
9723;DHT22;4900;49.306;8.500;2023-11-19T15:08:50;15.95;65.23
9723;DHT22;4900;49.306;8.500;2023-11-19T15:11:16;15.91;65.14
9723;DHT22;4900;49.306;8.500;2023-11-19T15:13:42;15.85;65.20
9723;DHT22;4900;49.306;8.500;2023-11-19T15:16:07;15.78;65.61
9723;DHT22;4900;49.306;8.500;2023-11-19T15:18:37;15.66;64.69
9723;DHT22;4900;49.306;8.500;2023-11-19T15:21:03;15.67;64.28
9723;DHT22;4900;49.306;8.500;2023-11-19T15:23:28;15.59;64.11
9723;DHT22;4900;49.306;8.500;2023-11-19T15:25:54;15.60;63.62
9723;DHT22;4900;49.306;8.500;2023-11-19T15:28:20;15.49;63.80
9723;DHT22;4900;49.306;8.500;2023-11-19T15:30:47;15.42;63.92
9723;DHT22;4900;49.306;8.500;2023-11-19T15:33:12;15.40;63.94
9723;DHT22;4900;49.306;8.500;2023-11-19T15:35:38;15.25;64.25
9723;DHT22;4900;49.306;8.500;2023-11-19T15:38:04;15.22;64.75
9723;DHT22;4900;49.306;8.500;2023-11-19T15:40:30;15.14;65.06
9723;DHT22;4900;49.306;8.500;2023-11-19T15:42:56;15.09;65.15
9723;DHT22;4900;49.306;8.500;2023-11-19T15:45:22;14.98;65.62
9723;DHT22;4900;49.306;8.500;2023-11-19T15:47:49;14.92;65.82
9723;DHT22;4900;49.306;8.500;2023-11-19T15:50:14;14.89;65.97
9723;DHT22;4900;49.306;8.500;2023-11-19T15:52:40;14.76;66.31
9723;DHT22;4900;49.306;8.500;2023-11-19T15:55:06;14.77;66.52
9723;DHT22;4900;49.306;8.500;2023-11-19T15:57:32;14.76;66.76
9723;DHT22;4900;49.306;8.500;2023-11-19T15:59:58;14.73;66.80
9723;DHT22;4900;49.306;8.500;2023-11-19T16:02:23;14.74;66.88
9723;DHT22;4900;49.306;8.500;2023-11-19T16:04:48;14.73;66.97
9723;DHT22;4900;49.306;8.500;2023-11-19T16:07:15;14.76;67.30
9723;DHT22;4900;49.306;8.500;2023-11-19T16:09:40;14.71;67.50
9723;DHT22;4900;49.306;8.500;2023-11-19T16:12:07;14.70;67.88
9723;DHT22;4900;49.306;8.500;2023-11-19T16:14:37;14.67;68.26
9723;DHT22;4900;49.306;8.500;2023-11-19T16:17:02;14.70;68.28
9723;DHT22;4900;49.306;8.500;2023-11-19T16:19:27;14.74;68.30
9723;DHT22;4900;49.306;8.500;2023-11-19T16:21:53;14.69;68.50
9723;DHT22;4900;49.306;8.500;2023-11-19T16:24:18;14.70;68.73
9723;DHT22;4900;49.306;8.500;2023-11-19T16:26:44;14.57;69.11